createdAt,value
2023-01-10T00:00:57.387Z,79.63
2023-01-10T00:03:25.499Z,80.10
2023-01-10T00:05:52.071Z,79.91
2023-01-10T00:08:19.085Z,80.58
2023-01-10T00:10:48.005Z,80.43
2023-01-10T00:13:25.993Z,81.12
2023-01-10T00:15:55.132Z,80.51
2023-01-10T00:18:22.354Z,80.91
2023-01-10T00:20:49.763Z,81.01
2023-01-10T00:23:17.316Z,81.35
2023-01-10T00:25:44.631Z,81.39
2023-01-10T00:28:20.283Z,81.19
2023-01-10T00:31:01.463Z,82.00
2023-01-10T00:33:30.097Z,81.40
2023-01-10T00:35:58.365Z,80.78
2023-01-10T00:38:24.933Z,80.56
2023-01-10T00:40:51.839Z,80.50
2023-01-10T00:43:38.304Z,80.40
2023-01-10T00:46:06.308Z,80.15
2023-01-10T00:48:32.824Z,80.00
2023-01-10T00:50:59.933Z,80.63
2023-01-10T00:53:27.728Z,79.55
2023-01-10T00:55:55.646Z,79.26
2023-01-10T00:58:23.376Z,79.78
2023-01-10T01:00:50.458Z,78.92
2023-01-10T01:03:19.912Z,79.18
2023-01-10T01:05:48.614Z,79.27
2023-01-10T01:08:16.608Z,79.40
2023-01-10T01:10:43.523Z,79.44
2023-01-10T01:13:21.844Z,79.14
2023-01-10T01:15:49.567Z,78.68
2023-01-10T01:18:20.740Z,78.35
2023-01-10T01:20:51.271Z,78.02
2023-01-10T01:23:17.758Z,77.54
2023-01-10T01:25:44.357Z,78.29
2023-01-10T01:28:13.876Z,77.48
2023-01-10T01:30:40.749Z,77.63
2023-01-10T01:33:08.334Z,78.68
2023-01-10T01:35:36.524Z,78.70
2023-01-10T01:38:06.134Z,78.27
2023-01-10T01:40:33.116Z,78.47
2023-01-10T01:42:59.729Z,77.88
2023-01-10T01:45:29.647Z,77.69
2023-01-10T01:48:21.268Z,77.74
2023-01-10T01:51:05.817Z,77.86
2023-01-10T01:53:55.062Z,78.76
2023-01-10T01:56:33.529Z,78.45
2023-01-10T01:59:08.043Z,78.73
2023-01-10T02:01:38.333Z,78.64
2023-01-10T02:04:14.648Z,78.94
2023-01-10T02:06:41.995Z,79.50
2023-01-10T02:09:26.790Z,79.37
2023-01-10T02:11:56.755Z,79.10
2023-01-10T02:14:26.264Z,79.26
2023-01-10T02:16:52.983Z,79.21
2023-01-10T02:19:39.878Z,79.21
2023-01-10T02:22:43.789Z,79.41
2023-01-10T02:26:11.055Z,78.81
2023-01-10T02:28:53.041Z,79.66
2023-01-10T02:31:39.313Z,79.25
2023-01-10T02:34:18.624Z,78.79
2023-01-10T02:37:18.821Z,78.65
2023-01-10T02:40:11.753Z,78.54
2023-01-10T02:42:55.652Z,79.20
2023-01-10T02:45:31.324Z,79.01
2023-01-10T02:47:58.489Z,78.88
2023-01-10T02:50:35.525Z,78.90
2023-01-10T02:53:11.010Z,78.65
2023-01-10T02:55:55.839Z,78.95
2023-01-10T02:58:45.126Z,79.00
2023-01-10T03:01:43.098Z,78.87
2023-01-10T03:04:20.709Z,78.99
2023-01-10T03:06:56.922Z,79.08
2023-01-10T03:09:43.842Z,78.87
2023-01-10T03:12:39.487Z,79.38
2023-01-10T03:15:08.142Z,79.29
2023-01-10T03:17:37.950Z,78.76
2023-01-10T03:20:06.910Z,80.07
2023-01-10T03:22:37.576Z,80.10
2023-01-10T03:25:07.578Z,80.06
2023-01-10T03:27:46.798Z,80.12
2023-01-10T03:30:24.657Z,80.09
2023-01-10T03:32:51.706Z,79.43
2023-01-10T03:35:22.091Z,79.73
2023-01-10T03:38:06.884Z,79.49
2023-01-10T03:40:49.349Z,79.31
2023-01-10T03:43:46.163Z,78.95
2023-01-10T03:46:25.969Z,79.58
2023-01-10T03:48:54.163Z,79.70
2023-01-10T03:51:21.264Z,79.64
2023-01-10T03:53:48.569Z,79.13
2023-01-10T03:56:16.378Z,79.47
2023-01-10T03:58:44.056Z,78.92
2023-01-10T04:01:10.923Z,79.50
2023-01-10T04:03:39.908Z,79.28
2023-01-10T04:06:07.170Z,79.16
2023-01-10T04:08:33.828Z,78.64
2023-01-10T04:11:00.383Z,78.91
2023-01-10T04:13:29.105Z,78.65
2023-01-10T04:15:55.797Z,79.18
2023-01-10T04:18:22.577Z,79.15
2023-01-10T04:20:52.062Z,79.02
2023-01-10T04:23:20.819Z,78.87
2023-01-10T04:25:48.078Z,78.56
2023-01-10T04:28:15.911Z,78.95
2023-01-10T04:30:42.568Z,78.61
2023-01-10T04:33:10.530Z,78.73
2023-01-10T04:35:37.363Z,78.85
2023-01-10T04:38:03.954Z,79.13
2023-01-10T04:40:30.839Z,78.65
2023-01-10T04:42:57.611Z,78.90
2023-01-10T04:45:24.511Z,78.38
2023-01-10T04:47:52.709Z,79.28
2023-01-10T04:50:19.283Z,78.89
2023-01-10T04:52:47.262Z,78.49
2023-01-10T04:55:14.112Z,78.23
2023-01-10T04:57:40.748Z,77.84
2023-01-10T05:00:08.523Z,78.01
2023-01-10T05:02:35.375Z,78.22
2023-01-10T05:05:02.446Z,78.26
2023-01-10T05:07:28.947Z,78.08
2023-01-10T05:09:58.390Z,77.95
2023-01-10T05:12:24.970Z,78.00
2023-01-10T05:14:51.463Z,77.95
2023-01-10T05:17:19.093Z,77.72
2023-01-10T05:19:45.648Z,78.00
2023-01-10T05:22:12.383Z,78.41
2023-01-10T05:24:38.876Z,78.07
2023-01-10T05:27:05.626Z,77.86
2023-01-10T05:29:33.174Z,78.53
2023-01-10T05:32:00.154Z,77.68
2023-01-10T05:34:27.778Z,78.20
2023-01-10T05:36:55.596Z,78.06
2023-01-10T05:39:22.207Z,77.32
2023-01-10T05:41:48.724Z,77.23
2023-01-10T05:44:17.442Z,77.53
2023-01-10T05:46:44.393Z,77.09
2023-01-10T05:49:10.982Z,77.41
2023-01-10T05:51:37.644Z,77.69
2023-01-10T05:54:04.186Z,78.06
2023-01-10T05:56:30.754Z,77.32
2023-01-10T05:59:07.718Z,77.59
2023-01-10T06:01:38.335Z,77.05
2023-01-10T06:04:04.866Z,77.86
2023-01-10T06:06:31.371Z,77.51
2023-01-10T06:08:59.215Z,77.55
2023-01-10T06:11:29.954Z,77.12
2023-01-10T06:13:58.456Z,77.55
2023-01-10T06:16:25.530Z,77.24
2023-01-10T06:18:55.510Z,76.78
2023-01-10T06:21:22.544Z,77.67
2023-01-10T06:23:50.325Z,76.85
2023-01-10T06:26:19.032Z,76.67
2023-01-10T06:28:45.686Z,77.39
2023-01-10T06:31:14.255Z,76.66
2023-01-10T06:33:41.764Z,76.73
2023-01-10T06:36:08.966Z,76.72
2023-01-10T06:38:35.650Z,76.97
2023-01-10T06:41:12.918Z,77.18
2023-01-10T06:43:41.651Z,76.45
2023-01-10T06:46:10.007Z,76.67
2023-01-10T06:48:37.937Z,77.33
2023-01-10T06:51:05.643Z,76.71
2023-01-10T06:53:32.641Z,76.56
2023-01-10T06:55:59.271Z,76.10
2023-01-10T06:58:28.122Z,76.43
2023-01-10T07:00:55.347Z,76.35
2023-01-10T07:03:21.956Z,75.88
2023-01-10T07:05:48.705Z,75.42
2023-01-10T07:08:16.585Z,75.37
2023-01-10T07:10:46.117Z,74.68
2023-01-10T07:13:12.632Z,74.73
2023-01-10T07:15:39.274Z,74.57
2023-01-10T07:18:05.922Z,74.56
2023-01-10T07:20:32.392Z,75.16
2023-01-10T07:23:00.529Z,74.47
2023-01-10T07:25:30.222Z,74.36
2023-01-10T07:27:59.088Z,74.74
2023-01-10T07:30:26.717Z,75.07
2023-01-10T07:32:57.170Z,74.36
2023-01-10T07:35:24.745Z,75.13
2023-01-10T07:37:51.812Z,74.57
2023-01-10T07:40:18.349Z,74.44
2023-01-10T07:42:45.026Z,74.14
2023-01-10T07:45:11.957Z,74.06
2023-01-10T07:47:39.198Z,73.77
2023-01-10T07:50:06.494Z,73.81
2023-01-10T07:52:33.823Z,73.62
2023-01-10T07:55:00.502Z,74.06
2023-01-10T07:57:27.434Z,73.69
2023-01-10T07:59:53.916Z,73.66
2023-01-10T08:02:20.577Z,74.00
2023-01-10T08:04:47.293Z,73.42
2023-01-10T08:07:14.953Z,74.02
2023-01-10T08:09:42.682Z,73.92
2023-01-10T08:12:09.517Z,73.36
2023-01-10T08:14:36.120Z,73.33
2023-01-10T08:17:02.791Z,73.75
2023-01-10T08:19:29.349Z,73.44
2023-01-10T08:21:56.259Z,73.93
2023-01-10T08:24:23.128Z,73.70
2023-01-10T08:26:49.783Z,73.64
2023-01-10T08:29:17.445Z,73.64
2023-01-10T08:31:44.627Z,73.69
2023-01-10T08:34:13.752Z,74.20
2023-01-10T08:36:40.379Z,73.99
2023-01-10T08:39:07.707Z,74.48
2023-01-10T08:41:34.920Z,74.59
2023-01-10T08:44:01.667Z,74.75
2023-01-10T08:46:28.388Z,75.17
2023-01-10T08:48:56.069Z,74.27
2023-01-10T08:51:22.965Z,74.03
2023-01-10T08:53:49.502Z,74.48
2023-01-10T08:56:16.183Z,75.36
2023-01-10T08:58:44.848Z,74.83
2023-01-10T09:01:12.834Z,74.99
2023-01-10T09:03:39.962Z,75.25
2023-01-10T09:06:07.483Z,74.84
2023-01-10T09:08:35.337Z,74.93
2023-01-10T09:11:02.323Z,74.31
2023-01-10T09:13:30.333Z,74.63
2023-01-10T09:15:57.826Z,74.75
2023-01-10T09:18:25.879Z,74.48
2023-01-10T09:20:53.607Z,74.71
2023-01-10T09:23:22.223Z,75.00
2023-01-10T09:25:51.804Z,74.71
2023-01-10T09:28:18.993Z,75.45
2023-01-10T09:30:47.606Z,73.95
2023-01-10T09:33:14.471Z,73.75
2023-01-10T09:35:42.597Z,73.69
2023-01-10T09:38:17.717Z,74.13
2023-01-10T09:41:04.008Z,73.78
2023-01-10T09:43:50.339Z,73.84
2023-01-10T09:46:31.018Z,73.95
2023-01-10T09:49:30.823Z,73.44
2023-01-10T09:51:59.310Z,73.87
2023-01-10T09:54:30.126Z,74.05
2023-01-10T09:56:59.627Z,74.11
2023-01-10T09:59:35.675Z,74.05
2023-01-10T10:02:22.501Z,73.47
2023-01-10T10:05:13.180Z,72.90
2023-01-10T10:07:40.697Z,73.50
2023-01-10T10:10:12.045Z,73.02
2023-01-10T10:12:50.908Z,72.59
2023-01-10T10:15:43.225Z,72.65
2023-01-10T10:18:36.851Z,72.11
2023-01-10T10:21:15.364Z,71.86
2023-01-10T10:24:10.106Z,72.48
2023-01-10T10:27:00.041Z,72.10
2023-01-10T10:29:46.888Z,72.91
2023-01-10T10:32:25.894Z,72.87
2023-01-10T10:35:03.667Z,71.98
2023-01-10T10:37:43.125Z,72.10
2023-01-10T10:40:17.735Z,72.25
2023-01-10T10:43:08.646Z,72.74
2023-01-10T10:45:46.296Z,72.65
2023-01-10T10:48:18.383Z,73.11
2023-01-10T10:51:08.978Z,72.81
2023-01-10T10:53:36.722Z,70.98
2023-01-10T10:56:05.599Z,70.56
2023-01-10T10:58:32.916Z,70.61
2023-01-10T11:01:03.963Z,70.62
2023-01-10T11:03:44.651Z,69.52
2023-01-10T11:06:11.562Z,68.86
2023-01-10T11:08:44.804Z,67.70
2023-01-10T11:11:31.614Z,68.84
2023-01-10T11:14:04.932Z,68.53
2023-01-10T11:16:36.931Z,68.69
2023-01-10T11:19:30.627Z,68.97
2023-01-10T11:22:06.583Z,68.08
2023-01-10T11:24:42.062Z,68.01
2023-01-10T11:27:18.239Z,68.38
2023-01-10T11:30:10.193Z,67.33
2023-01-10T11:32:50.070Z,66.39
2023-01-10T11:35:37.368Z,67.57
2023-01-10T11:38:29.149Z,67.90
2023-01-10T11:41:25.662Z,66.92
2023-01-10T11:43:53.372Z,66.03
2023-01-10T11:46:25.810Z,65.74
2023-01-10T11:49:07.716Z,66.06
2023-01-10T11:51:39.801Z,66.31
2023-01-10T11:54:12.940Z,66.31
2023-01-10T11:56:41.621Z,66.29
2023-01-10T11:59:18.646Z,66.80
2023-01-10T12:02:20.921Z,67.48
2023-01-10T12:04:51.002Z,67.25
2023-01-10T12:07:19.737Z,67.34
2023-01-10T12:10:02.262Z,66.70
2023-01-10T12:12:35.257Z,67.52
2023-01-10T12:15:28.797Z,68.06
2023-01-10T12:18:05.399Z,67.51
2023-01-10T12:20:40.888Z,67.65
2023-01-10T12:23:17.135Z,68.48
2023-01-10T12:25:45.837Z,68.18
2023-01-10T12:28:29.091Z,68.21
2023-01-10T12:30:59.358Z,67.53
2023-01-10T12:33:35.228Z,68.27
2023-01-10T12:36:17.920Z,68.80
2023-01-10T12:39:19.134Z,67.76
2023-01-10T12:42:22.777Z,68.03
2023-01-10T12:44:54.978Z,68.10
2023-01-10T12:47:31.816Z,67.59
2023-01-10T12:50:03.636Z,67.51
2023-01-10T12:52:52.458Z,66.64
2023-01-10T12:55:22.141Z,67.33
2023-01-10T12:57:58.002Z,67.32
2023-01-10T13:00:40.473Z,67.13
2023-01-10T13:03:22.471Z,66.57
2023-01-10T13:05:51.730Z,66.68
2023-01-10T13:08:23.361Z,66.78
2023-01-10T13:10:53.000Z,67.17
2023-01-10T13:13:32.032Z,66.47
2023-01-10T13:16:15.205Z,66.81
2023-01-10T13:19:01.583Z,67.27
2023-01-10T13:21:30.050Z,67.08
2023-01-10T13:24:14.853Z,66.46
2023-01-10T13:26:56.996Z,66.66
2023-01-10T13:29:45.261Z,66.99
2023-01-10T13:32:30.064Z,67.12
2023-01-10T13:35:16.344Z,67.00
2023-01-10T13:37:47.292Z,67.07
2023-01-10T13:40:25.914Z,67.39
2023-01-10T13:43:34.417Z,66.78
2023-01-10T13:46:16.222Z,66.88
2023-01-10T13:48:48.934Z,66.59
2023-01-10T13:51:19.000Z,66.61
2023-01-10T13:53:52.733Z,66.25
2023-01-10T13:56:31.965Z,66.74
2023-01-10T13:59:17.689Z,66.10
2023-01-10T14:02:08.643Z,66.36
2023-01-10T14:04:38.956Z,65.16
2023-01-10T14:07:23.417Z,65.28
2023-01-10T14:09:51.362Z,65.92
2023-01-10T14:12:26.533Z,66.27
2023-01-10T14:14:57.333Z,66.18
2023-01-10T14:17:32.209Z,66.36
2023-01-10T14:20:17.607Z,65.49
2023-01-10T14:22:57.730Z,65.51
2023-01-10T14:25:27.570Z,64.84
2023-01-10T14:27:55.573Z,65.52
2023-01-10T14:30:27.456Z,66.26
2023-01-10T14:32:57.967Z,64.88
2023-01-10T14:35:34.648Z,65.44
2023-01-10T14:38:03.182Z,65.32
2023-01-10T14:40:45.860Z,65.32
2023-01-10T14:43:16.701Z,65.45
2023-01-10T14:46:04.798Z,65.31
2023-01-10T14:48:40.359Z,65.82
2023-01-10T14:51:18.279Z,65.93
2023-01-10T14:53:45.405Z,65.49
2023-01-10T14:56:25.281Z,65.76
2023-01-10T14:58:51.773Z,65.50
2023-01-10T15:01:29.730Z,66.07
2023-01-10T15:03:58.642Z,65.86
2023-01-10T15:06:26.181Z,65.95
2023-01-10T15:09:00.230Z,66.02
2023-01-10T15:11:29.080Z,66.28
2023-01-10T15:14:03.657Z,65.57
2023-01-10T15:16:31.359Z,65.77
2023-01-10T15:18:59.763Z,65.76
2023-01-10T15:21:28.640Z,66.12
2023-01-10T15:23:55.205Z,65.83
2023-01-10T15:26:29.496Z,65.74
2023-01-10T15:29:19.246Z,66.26
2023-01-10T15:31:46.724Z,66.61
2023-01-10T15:34:20.465Z,66.49
2023-01-10T15:36:53.713Z,66.15
2023-01-10T15:39:29.184Z,66.68
2023-01-10T15:42:03.689Z,67.09
2023-01-10T15:44:47.473Z,66.91
2023-01-10T15:48:05.821Z,67.50
2023-01-10T15:50:40.249Z,67.55
2023-01-10T15:53:10.326Z,67.66
2023-01-10T15:55:55.461Z,67.16
2023-01-10T15:58:32.982Z,67.70
2023-01-10T16:01:02.832Z,67.86
2023-01-10T16:03:44.834Z,67.50
2023-01-10T16:06:33.788Z,67.37
2023-01-10T16:09:05.851Z,68.55
2023-01-10T16:12:05.639Z,68.29
2023-01-10T16:14:33.717Z,68.39
2023-01-10T16:17:03.896Z,68.30
2023-01-10T16:19:30.746Z,68.33
2023-01-10T16:21:59.218Z,67.78
2023-01-10T16:24:31.128Z,68.37
2023-01-10T16:27:05.777Z,67.94
2023-01-10T16:29:34.121Z,68.21
2023-01-10T16:32:03.039Z,67.71
2023-01-10T16:34:31.090Z,68.28
2023-01-10T16:36:58.936Z,68.40
2023-01-10T16:39:25.547Z,68.29
2023-01-10T16:42:10.836Z,67.92
2023-01-10T16:44:37.407Z,67.98
2023-01-10T16:47:07.093Z,68.27
2023-01-10T16:49:33.963Z,68.18
2023-01-10T16:52:00.479Z,68.22
2023-01-10T16:54:28.178Z,67.84
2023-01-10T16:56:58.654Z,67.88
2023-01-10T16:59:25.180Z,68.13
2023-01-10T17:01:57.922Z,68.10
2023-01-10T17:04:28.869Z,68.10
2023-01-10T17:06:59.972Z,67.81
2023-01-10T17:09:32.516Z,68.43
2023-01-10T17:12:12.406Z,68.39
2023-01-10T17:14:42.335Z,68.99
2023-01-10T17:17:10.766Z,68.43
2023-01-10T17:19:38.522Z,67.99
2023-01-10T17:22:06.333Z,68.29
2023-01-10T17:24:33.141Z,68.44
2023-01-10T17:26:59.762Z,68.25
2023-01-10T17:29:29.372Z,68.53
2023-01-10T17:31:57.224Z,68.29
2023-01-10T17:34:26.082Z,68.75
2023-01-10T17:36:53.895Z,68.78
2023-01-10T17:39:21.667Z,69.14
2023-01-10T17:41:48.565Z,69.19
2023-01-10T17:44:15.062Z,68.56
2023-01-10T17:46:44.121Z,68.83
2023-01-10T17:49:18.337Z,68.93
2023-01-10T17:51:45.532Z,68.79
2023-01-10T17:54:16.920Z,68.86
2023-01-10T17:56:43.935Z,69.34
2023-01-10T17:59:13.102Z,68.93
2023-01-10T18:01:39.907Z,68.78
2023-01-10T18:04:08.403Z,68.75
2023-01-10T18:06:35.393Z,69.63
2023-01-10T18:09:05.294Z,68.86
2023-01-10T18:11:33.634Z,69.20
2023-01-10T18:14:21.652Z,69.26
2023-01-10T18:16:49.488Z,69.09
2023-01-10T18:19:19.118Z,69.07
2023-01-10T18:21:47.874Z,69.32
2023-01-10T18:24:16.716Z,69.39
2023-01-10T18:26:43.256Z,69.64
2023-01-10T18:29:14.784Z,69.81
2023-01-10T18:31:42.927Z,70.17
2023-01-10T18:34:09.749Z,70.12
2023-01-10T18:36:47.602Z,69.79
2023-01-10T18:39:16.952Z,69.90
2023-01-10T18:41:43.784Z,68.99
2023-01-10T18:44:10.409Z,69.01
2023-01-10T18:46:37.049Z,69.62
2023-01-10T18:49:05.433Z,69.26
2023-01-10T18:51:32.157Z,76.65
2023-01-10T18:53:58.732Z,69.29
2023-01-10T18:56:27.171Z,69.14
2023-01-10T18:58:55.651Z,68.94
2023-01-10T19:01:23.074Z,69.09
2023-01-10T19:03:51.900Z,69.39
2023-01-10T19:06:22.710Z,70.14
2023-01-10T19:08:52.647Z,69.94
2023-01-10T19:11:19.915Z,70.30
2023-01-10T19:13:47.633Z,70.88
2023-01-10T19:16:21.379Z,70.98
2023-01-10T19:18:53.447Z,71.70
2023-01-10T19:21:20.271Z,71.94
2023-01-10T19:23:49.976Z,72.63
2023-01-10T19:26:17.888Z,73.55
2023-01-10T19:28:45.097Z,73.31
2023-01-10T19:31:23.886Z,73.37
2023-01-10T19:33:51.141Z,73.62
2023-01-10T19:36:21.241Z,73.65
2023-01-10T19:38:48.164Z,73.83
2023-01-10T19:41:16.010Z,73.96
2023-01-10T19:43:42.464Z,74.10
2023-01-10T19:46:11.279Z,73.75
2023-01-10T19:48:38.362Z,74.29
2023-01-10T19:51:09.926Z,74.65
2023-01-10T19:53:38.184Z,74.10
2023-01-10T19:56:09.507Z,74.16
2023-01-10T19:58:38.392Z,75.41
2023-01-10T20:01:31.874Z,75.66
2023-01-10T20:04:03.322Z,75.11
2023-01-10T20:06:31.937Z,75.13
2023-01-10T20:08:58.786Z,75.53
2023-01-10T20:11:36.709Z,75.04
2023-01-10T20:14:08.468Z,75.53
2023-01-10T20:16:35.165Z,75.73
2023-01-10T20:19:01.949Z,75.73
2023-01-10T20:21:28.542Z,75.51
2023-01-10T20:23:55.527Z,75.29
2023-01-10T20:26:26.491Z,75.47
2023-01-10T20:28:53.694Z,76.23
2023-01-10T20:31:23.701Z,77.17
2023-01-10T20:33:51.321Z,77.50
2023-01-10T20:36:20.198Z,77.09
2023-01-10T20:38:47.111Z,77.04
2023-01-10T20:41:26.807Z,77.28
2023-01-10T20:43:54.790Z,78.11
2023-01-10T20:46:27.407Z,79.07
2023-01-10T20:48:56.535Z,78.60
2023-01-10T20:51:27.080Z,78.60
2023-01-10T20:53:53.664Z,79.61
2023-01-10T20:56:24.755Z,80.28
2023-01-10T20:58:52.490Z,80.68
2023-01-10T21:01:33.028Z,80.07
2023-01-10T21:04:01.040Z,80.62
2023-01-10T21:06:28.533Z,80.80
2023-01-10T21:08:56.667Z,80.86
2023-01-10T21:11:23.319Z,81.04
2023-01-10T21:13:50.054Z,80.95
2023-01-10T21:16:19.397Z,80.90
2023-01-10T21:18:46.307Z,81.35
2023-01-10T21:21:15.703Z,81.88
2023-01-10T21:23:42.671Z,82.20
2023-01-10T21:26:15.558Z,81.99
2023-01-10T21:28:48.396Z,82.26
2023-01-10T21:31:18.774Z,82.29
2023-01-10T21:33:49.353Z,82.41
2023-01-10T21:36:16.375Z,82.59
2023-01-10T21:38:43.901Z,82.74
2023-01-10T21:41:38.752Z,82.98
2023-01-10T21:44:06.771Z,82.85
2023-01-10T21:46:33.535Z,83.16
2023-01-10T21:49:04.479Z,82.37
2023-01-10T21:51:31.059Z,83.24
2023-01-10T21:53:57.837Z,83.37
2023-01-10T21:56:24.528Z,83.28
2023-01-10T21:58:52.257Z,83.03
2023-01-10T22:01:18.907Z,83.83
2023-01-10T22:03:46.128Z,83.98
2023-01-10T22:06:13.286Z,84.54
2023-01-10T22:08:39.814Z,83.99
2023-01-10T22:11:07.211Z,84.11
2023-01-10T22:13:34.189Z,84.81
2023-01-10T22:16:01.849Z,84.41
2023-01-10T22:18:30.043Z,84.88
2023-01-10T22:20:57.982Z,84.65
2023-01-10T22:23:24.960Z,85.02
2023-01-10T22:25:59.328Z,85.06
2023-01-10T22:28:25.905Z,85.02
2023-01-10T22:30:54.414Z,85.11
2023-01-10T22:33:23.003Z,85.51
2023-01-10T22:35:49.617Z,84.94
2023-01-10T22:38:16.126Z,85.06
2023-01-10T22:40:42.860Z,85.06
2023-01-10T22:43:09.564Z,85.99
2023-01-10T22:45:40.456Z,85.78
2023-01-10T22:48:07.020Z,85.94
2023-01-10T22:50:33.608Z,85.42
2023-01-10T22:53:00.185Z,85.66
2023-01-10T22:55:26.701Z,86.23
2023-01-10T22:57:53.225Z,86.17
2023-01-10T23:00:20.192Z,86.14
2023-01-10T23:02:46.763Z,86.21
2023-01-10T23:05:13.299Z,86.53
2023-01-10T23:07:39.833Z,85.44
2023-01-10T23:10:17.252Z,86.24
2023-01-10T23:12:51.097Z,86.41
2023-01-10T23:15:17.930Z,85.74
2023-01-10T23:17:44.408Z,86.31
2023-01-10T23:20:11.455Z,85.93
2023-01-10T23:22:38.341Z,86.12
2023-01-10T23:25:05.421Z,86.00
2023-01-10T23:27:31.872Z,86.56
2023-01-10T23:29:58.521Z,86.59
2023-01-10T23:32:25.184Z,86.59
2023-01-10T23:34:51.845Z,86.39
2023-01-10T23:37:18.376Z,86.65
2023-01-10T23:39:45.992Z,86.90
2023-01-10T23:42:12.471Z,86.50
2023-01-10T23:44:39.112Z,85.78
2023-01-10T23:47:05.794Z,86.74
2023-01-10T23:49:34.897Z,86.40
2023-01-10T23:52:01.637Z,86.53
2023-01-10T23:54:28.368Z,86.46
2023-01-10T23:56:54.892Z,86.57
2023-01-10T23:59:22.080Z,86.60
